Time;durP1;ratioP1;P1;durP2;ratioP2;P2;SDS_P1;SDS_P2;PMS_P1;PMS_P2;Temp;Humidity;BMP_temperature;BMP_pressure;BME280_temperature;BME280_humidity;BME280_pressure;Samples;Min_cycle;Max_cycle;Signal;HPM_P1;HPM_P2
2022/05/26 00:01:26;;;;;;;41.67;10.00;;;14.10;92.70;;;;;;5015086;28;20049;-75
2022/05/26 00:03:53;;;;;;;26.85;10.02;;;14.10;93.00;;;;;;5030735;28;20084;-75
2022/05/26 00:06:21;;;;;;;38.42;11.10;;;14.10;93.00;;;;;;5030382;28;20510;-74
2022/05/26 00:08:47;;;;;;;34.35;9.43;;;14.00;93.00;;;;;;5031189;28;20033;-76
2022/05/26 00:11:18;;;;;;;37.47;9.27;;;14.00;93.10;;;;;;5031031;28;20050;-75
2022/05/26 00:13:44;;;;;;;28.15;9.80;;;14.00;93.20;;;;;;5032029;28;20141;-74
2022/05/26 00:16:12;;;;;;;37.92;10.93;;;13.90;93.40;;;;;;5032083;28;20365;-75
2022/05/26 00:18:37;;;;;;;29.17;9.25;;;13.90;93.30;;;;;;5031772;28;20076;-73
2022/05/26 00:21:04;;;;;;;37.28;10.32;;;13.90;93.40;;;;;;5032116;28;20099;-73
2022/05/26 00:23:30;;;;;;;34.53;9.48;;;13.80;93.50;;;;;;5032078;28;20051;-75
2022/05/26 00:25:55;;;;;;;30.40;8.70;;;13.90;93.40;;;;;;5015467;28;20045;-73
2022/05/26 00:28:21;;;;;;;32.30;8.85;;;14.00;93.50;;;;;;5031917;28;20034;-72
2022/05/26 00:30:48;;;;;;;31.02;8.32;;;13.90;93.40;;;;;;5031852;28;20405;-74
2022/05/26 00:33:16;;;;;;;30.83;9.35;;;13.80;93.70;;;;;;5032040;28;20042;-76
2022/05/26 00:35:41;;;;;;;43.08;10.27;;;13.80;93.70;;;;;;5031740;28;20045;-75
2022/05/26 00:38:09;;;;;;;47.88;10.88;;;13.90;93.60;;;;;;5015577;28;20168;-74
2022/05/26 00:40:36;;;;;;;30.60;9.68;;;13.90;93.70;;;;;;5031829;28;20041;-74
2022/05/26 00:43:02;;;;;;;42.47;10.60;;;13.80;93.70;;;;;;5031754;28;20077;-74
2022/05/26 00:45:45;;;;;;;38.95;10.20;;;13.90;93.90;;;;;;5031684;28;20122;-73
2022/05/26 00:48:15;;;;;;;31.35;9.45;;;13.90;93.80;;;;;;5048349;28;20050;-75
2022/05/26 00:50:57;;;;;;;30.80;8.55;;;13.80;93.80;;;;;;5031799;28;20153;-76
2022/05/26 00:53:45;;;;;;;40.30;9.57;;;13.90;93.90;;;;;;5068837;28;20050;-73
2022/05/26 00:56:24;;;;;;;39.45;10.13;;;13.90;93.90;;;;;;5068215;28;20061;-75
2022/05/26 00:58:56;;;;;;;31.98;9.32;;;13.90;93.90;;;;;;5035520;28;20446;-74
2022/05/26 01:01:22;;;;;;;35.83;9.63;;;13.90;94.00;;;;;;5068529;28;20057;-74
2022/05/26 01:03:56;;;;;;;34.55;8.95;;;13.90;94.10;;;;;;5068723;28;20056;-75
2022/05/26 01:06:24;;;;;;;30.45;9.32;;;13.90;94.00;;;;;;5068466;28;20045;-73
2022/05/26 01:09:02;;;;;;;38.88;9.77;;;13.90;94.10;;;;;;5035052;28;20037;-75
2022/05/26 01:11:34;;;;;;;30.98;8.00;;;13.90;94.10;;;;;;5034840;28;20171;-77
2022/05/26 01:14:20;;;;;;;37.35;9.60;;;13.90;94.10;;;;;;5034688;28;20072;-74
2022/05/26 01:16:46;;;;;;;31.17;9.63;;;13.90;94.10;;;;;;5035049;28;20057;-75
2022/05/26 01:19:32;;;;;;;25.90;8.93;;;13.80;94.10;;;;;;5034799;28;20494;-76
2022/05/26 01:22:17;;;;;;;29.30;8.73;;;13.90;94.10;;;;;;5018547;28;20041;-77
2022/05/26 01:25:08;;;;;;;40.55;10.43;;;13.90;94.10;;;;;;5018199;28;20088;-73
2022/05/26 01:27:37;;;;;;;28.42;8.48;;;13.90;94.00;;;;;;5051248;28;20077;-73
2022/05/26 01:30:18;;;;;;;32.67;8.70;;;13.90;94.10;;;;;;5068262;28;20081;-75
2022/05/26 01:33:04;;;;;;;27.58;7.55;;;13.90;94.00;;;;;;5018338;28;20040;-72
2022/05/26 01:36:06;;;;;;;33.83;10.25;;;13.90;94.00;;;;;;5034453;28;20057;-76
2022/05/26 01:38:57;;;;;;;20.10;5.93;;;13.90;93.80;;;;;;5034964;28;20091;-73
2022/05/26 01:41:45;;;;;;;19.88;6.32;;;13.90;93.80;;;;;;5034589;28;20033;-75
2022/05/26 01:44:26;;;;;;;22.60;7.15;;;13.90;93.40;;;;;;5034724;28;20148;-74
2022/05/26 01:46:58;;;;;;;27.05;6.20;;;14.00;93.10;;;;;;5034604;28;20041;-76
2022/05/26 01:49:36;;;;;;;19.70;5.53;;;13.90;92.90;;;;;;5018205;28;20052;-75
2022/05/26 01:52:27;;;;;;;20.48;4.88;;;13.90;92.40;;;;;;5034554;28;20091;-75
2022/05/26 01:55:24;;;;;;;16.55;4.85;;;14.00;91.70;;;;;;5067564;28;20056;-73
2022/05/26 01:58:28;;;;;;;15.07;3.75;;;14.00;90.50;;;;;;5033402;28;20087;-73
2022/05/26 02:00:56;;;;;;;12.77;4.30;;;14.00;90.60;;;;;;5013800;28;20057;-75
2022/05/26 02:03:25;;;;;;;15.75;4.13;;;14.00;90.20;;;;;;5033783;28;20037;-73
2022/05/26 02:06:12;;;;;;;11.80;3.58;;;14.00;89.80;;;;;;5034426;28;20048;-74
2022/05/26 02:08:43;;;;;;;11.82;4.18;;;14.00;89.50;;;;;;5034151;28;20073;-75
2022/05/26 02:11:18;;;;;;;12.77;4.00;;;14.00;89.20;;;;;;5034146;28;20099;-75
2022/05/26 02:14:06;;;;;;;15.63;3.47;;;13.90;89.10;;;;;;5034024;28;20504;-75
2022/05/26 02:16:38;;;;;;;15.05;4.35;;;14.00;88.80;;;;;;5067407;28;20146;-73
2022/05/26 02:19:22;;;;;;;18.23;4.40;;;13.90;88.90;;;;;;5033899;28;20041;-74
2022/05/26 02:21:54;;;;;;;14.88;3.58;;;13.90;88.80;;;;;;5033979;28;20076;-73
2022/05/26 02:24:28;;;;;;;13.95;3.78;;;13.80;88.70;;;;;;5017445;28;20045;-73
2022/05/26 02:26:54;;;;;;;13.95;3.35;;;13.80;88.30;;;;;;5034059;28;20041;-76
2022/05/26 02:32:05;;;;;;;10.48;3.13;;;13.80;88.10;;;;;;5019631;28;20041;-75
2022/05/26 02:34:32;;;;;;;9.50;2.55;;;13.70;87.70;;;;;;5033675;28;20087;-74
2022/05/26 02:36:59;;;;;;;9.40;3.55;;;13.70;87.10;;;;;;5066952;28;20096;-74
2022/05/26 02:39:25;;;;;;;13.95;3.00;;;13.60;87.30;;;;;;5066905;28;20062;-73
2022/05/26 02:41:54;;;;;;;10.75;2.40;;;13.70;86.80;;;;;;5033529;28;20044;-73
2022/05/26 02:44:22;;;;;;;8.60;2.35;;;13.60;86.70;;;;;;5017076;28;20128;-73
2022/05/26 02:47:06;;;;;;;9.35;2.78;;;13.50;86.50;;;;;;5066773;28;20081;-72
2022/05/26 02:49:59;;;;;;;9.13;2.38;;;13.50;86.50;;;;;;5033394;28;20045;-76
2022/05/26 02:52:49;;;;;;;6.28;2.15;;;13.50;86.30;;;;;;5033542;28;20044;-75
2022/05/26 02:55:59;;;;;;;6.85;1.92;;;13.30;86.50;;;;;;5033516;28;20051;-75
2022/05/26 02:59:07;;;;;;;6.32;2.53;;;13.30;86.10;;;;;;5036418;28;20049;-75
2022/05/26 03:01:43;;;;;;;10.43;2.58;;;13.10;86.50;;;;;;5036363;28;20040;-74
2022/05/26 03:04:19;;;;;;;9.27;2.60;;;13.00;86.70;;;;;;5069665;28;20049;-73
2022/05/26 03:06:49;;;;;;;7.78;2.58;;;13.00;86.90;;;;;;5069628;28;20401;-73
2022/05/26 03:09:16;;;;;;;8.95;2.00;;;13.00;86.80;;;;;;5069524;28;20041;-75
2022/05/26 03:12:03;;;;;;;7.25;2.63;;;12.90;87.00;;;;;;5036269;28;20055;-72
2022/05/26 03:14:29;;;;;;;6.88;2.20;;;12.90;86.90;;;;;;5035617;28;20048;-73
2022/05/26 03:16:55;;;;;;;9.95;2.75;;;12.90;86.90;;;;;;5069322;28;20404;-75
2022/05/26 03:19:21;;;;;;;8.20;2.40;;;12.80;86.90;;;;;;5069309;28;20055;-75
2022/05/26 03:21:47;;;;;;;10.50;2.80;;;12.80;87.00;;;;;;5019373;28;20041;-74
2022/05/26 03:24:13;;;;;;;7.50;2.28;;;12.80;87.30;;;;;;5036044;28;20446;-74
2022/05/26 03:26:40;;;;;;;11.18;2.60;;;12.80;87.30;;;;;;5069029;28;20049;-75
2022/05/26 03:29:06;;;;;;;9.55;2.28;;;12.80;87.20;;;;;;5068938;28;20143;-75
2022/05/26 03:31:32;;;;;;;8.90;2.45;;;12.80;87.40;;;;;;5068945;28;20037;-73
2022/05/26 03:42:13;;;;;;;7.50;1.85;;;12.80;87.20;;;;;;5054978;28;20099;-73
2022/05/26 03:44:39;;;;;;;12.77;2.88;;;12.90;87.00;;;;;;5035370;28;20057;-76
2022/05/26 03:47:05;;;;;;;7.00;1.65;;;12.80;87.10;;;;;;5035222;28;20057;-73
2022/05/26 03:49:31;;;;;;;9.38;2.05;;;12.80;87.30;;;;;;5068703;28;20079;-73
2022/05/26 03:51:58;;;;;;;6.93;1.55;;;12.80;87.10;;;;;;5068717;28;20493;-73
2022/05/26 03:54:27;;;;;;;8.10;2.10;;;12.90;86.90;;;;;;5068924;28;20086;-73
2022/05/26 03:56:53;;;;;;;15.15;2.42;;;12.90;86.80;;;;;;5035249;28;20136;-74
2022/05/26 03:59:19;;;;;;;6.82;1.42;;;12.90;86.60;;;;;;5019022;28;20052;-75
2022/05/26 04:01:45;;;;;;;5.68;1.55;;;12.90;86.80;;;;;;5069113;28;20033;-71
2022/05/26 04:04:11;;;;;;;8.02;1.77;;;12.90;86.60;;;;;;5019077;28;20124;-77
2022/05/26 04:06:37;;;;;;;14.32;2.65;;;13.00;86.00;;;;;;5068756;28;20175;-73
2022/05/26 04:09:03;;;;;;;9.07;2.83;;;13.00;86.10;;;;;;5052008;28;20044;-75
2022/05/26 04:11:29;;;;;;;7.53;1.60;;;12.90;86.10;;;;;;5068775;28;20036;-73
2022/05/26 04:13:55;;;;;;;12.20;2.58;;;13.00;85.80;;;;;;5018883;28;20052;-74
2022/05/26 04:16:22;;;;;;;7.53;1.83;;;12.90;86.10;;;;;;5035320;28;20045;-75
2022/05/26 04:18:47;;;;;;;9.10;1.85;;;12.90;86.00;;;;;;5068603;28;20124;-75
2022/05/26 04:21:14;;;;;;;8.57;2.78;;;12.90;86.00;;;;;;5068742;28;20131;-74
2022/05/26 04:23:40;;;;;;;8.60;2.47;;;12.90;86.00;;;;;;5068631;28;20043;-73
2022/05/26 04:26:08;;;;;;;4.47;1.70;;;12.90;85.80;;;;;;5037916;28;20083;-75
2022/05/26 04:28:34;;;;;;;4.65;1.33;;;12.90;86.00;;;;;;5023128;28;20041;-76
2022/05/26 04:31:00;;;;;;;5.55;1.80;;;12.90;86.00;;;;;;5072375;28;20037;-72
2022/05/26 04:33:26;;;;;;;9.45;1.70;;;12.90;85.90;;;;;;5022569;28;20040;-75
2022/05/26 04:35:52;;;;;;;7.03;2.13;;;12.90;85.90;;;;;;5072368;28;20068;-74
2022/05/26 04:38:19;;;;;;;9.80;1.85;;;12.90;85.90;;;;;;5022510;28;20071;-75
2022/05/26 04:40:45;;;;;;;7.07;1.40;;;12.90;86.00;;;;;;5072220;28;20504;-73
2022/05/26 04:43:11;;;;;;;7.97;2.00;;;12.90;85.90;;;;;;5072459;28;20128;-74
2022/05/26 04:45:38;;;;;;;8.38;2.00;;;12.90;86.10;;;;;;5072133;28;20084;-74
2022/05/26 04:48:04;;;;;;;8.40;1.73;;;13.00;86.20;;;;;;5072176;28;20412;-75
2022/05/26 04:50:30;;;;;;;8.07;1.92;;;13.00;86.20;;;;;;5072394;28;20045;-75
2022/05/26 04:52:56;;;;;;;11.15;1.88;;;13.00;85.90;;;;;;5039010;28;20029;-73
2022/05/26 04:55:21;;;;;;;10.98;1.73;;;13.00;85.90;;;;;;5038847;28;20040;-73
2022/05/26 04:57:48;;;;;;;5.10;1.30;;;13.10;85.50;;;;;;5022145;28;20497;-73
2022/05/26 05:00:16;;;;;;;8.35;1.55;;;13.10;85.50;;;;;;5038177;28;20603;-73
2022/05/26 05:02:42;;;;;;;7.07;1.65;;;13.20;85.60;;;;;;5022263;28;20052;-74
2022/05/26 05:05:10;;;;;;;6.68;1.35;;;13.20;85.60;;;;;;5071719;28;20051;-74
2022/05/26 05:07:36;;;;;;;6.75;1.58;;;13.20;85.60;;;;;;5021988;28;20392;-75
2022/05/26 05:10:02;;;;;;;7.05;1.33;;;13.30;85.80;;;;;;5022011;28;20119;-75
2022/05/26 05:12:28;;;;;;;9.88;2.40;;;13.30;85.80;;;;;;5072104;28;20044;-74
2022/05/26 05:14:56;;;;;;;7.50;1.92;;;13.40;85.70;;;;;;5072007;28;20048;-73
2022/05/26 05:17:24;;;;;;;4.63;1.70;;;13.40;86.00;;;;;;5071892;28;20072;-74
2022/05/26 05:19:50;;;;;;;6.93;1.85;;;13.40;86.10;;;;;;5071563;28;20075;-75
2022/05/26 05:22:28;;;;;;;4.97;1.38;;;13.50;85.80;;;;;;5071626;28;20041;-74
2022/05/26 05:25:16;;;;;;;10.98;2.05;;;13.50;85.60;;;;;;5072035;28;20033;-75
2022/05/26 05:27:55;;;;;;;5.32;1.40;;;13.70;85.00;;;;;;5037892;28;20041;-73
2022/05/26 05:30:34;;;;;;;5.38;1.40;;;13.80;84.30;;;;;;5038116;28;20051;-73
2022/05/26 05:33:09;;;;;;;7.80;1.40;;;13.80;84.40;;;;;;5021376;28;20045;-74
2022/05/26 05:35:41;;;;;;;5.97;1.30;;;13.90;84.10;;;;;;5038018;28;20041;-74
2022/05/26 05:38:07;;;;;;;8.32;1.60;;;14.00;84.20;;;;;;5070619;28;20070;-72
2022/05/26 05:40:34;;;;;;;8.23;2.47;;;14.10;83.70;;;;;;5071083;28;20128;-74
2022/05/26 05:43:00;;;;;;;8.57;1.50;;;14.10;83.60;;;;;;5071162;28;20087;-74
2022/05/26 05:45:26;;;;;;;4.85;1.58;;;14.20;83.30;;;;;;5071218;28;20068;-75
2022/05/26 05:47:51;;;;;;;11.27;1.95;;;14.30;83.00;;;;;;5054555;28;20041;-77
2022/05/26 05:50:17;;;;;;;5.88;1.17;;;14.40;83.00;;;;;;5071016;28;20037;-74
2022/05/26 05:52:43;;;;;;;7.63;1.40;;;14.40;82.80;;;;;;5038057;28;20073;-73
2022/05/26 05:55:09;;;;;;;6.35;1.45;;;14.50;82.40;;;;;;5070966;28;20059;-75
2022/05/26 05:57:35;;;;;;;4.22;1.10;;;14.60;82.50;;;;;;5070993;28;20061;-73
2022/05/26 06:00:00;;;;;;;8.27;1.35;;;14.70;82.60;;;;;;5070843;28;20091;-74
2022/05/26 06:02:26;;;;;;;10.23;1.85;;;14.70;81.90;;;;;;5020691;28;20055;-73
2022/05/26 06:04:52;;;;;;;3.83;1.30;;;14.80;81.70;;;;;;5070400;28;20067;-76
2022/05/26 06:07:20;;;;;;;4.32;0.93;;;14.90;81.40;;;;;;5037200;28;20037;-73
2022/05/26 06:09:47;;;;;;;4.45;1.52;;;14.90;80.60;;;;;;5070490;28;20118;-74
2022/05/26 06:12:13;;;;;;;6.88;1.33;;;15.00;80.60;;;;;;5070461;28;20045;-75
2022/05/26 06:14:40;;;;;;;6.45;1.20;;;15.00;79.50;;;;;;5070444;28;20056;-74
2022/05/26 06:17:09;;;;;;;8.40;1.40;;;15.00;79.00;;;;;;5070381;28;20041;-72
2022/05/26 06:19:36;;;;;;;5.47;1.45;;;14.90;78.90;;;;;;5070817;28;20132;-75
2022/05/26 06:22:11;;;;;;;4.22;1.02;;;14.90;79.00;;;;;;5037425;28;20048;-73
2022/05/26 06:24:38;;;;;;;8.45;1.63;;;14.90;79.00;;;;;;5070533;28;20055;-75
2022/05/26 06:29:49;;;;;;;6.57;1.50;;;14.90;78.80;;;;;;5020482;28;20052;-72
2022/05/26 06:29:50;;;;;;;7.07;1.20;;;14.90;79.10;;;;;;5037069;28;20040;-75
2022/05/26 06:37:49;;;;;;;4.90;1.17;;;15.00;78.70;;;;;;5070225;28;19922;-75
2022/05/26 06:40:15;;;;;;;6.38;1.10;;;15.10;78.80;;;;;;5020158;28;20040;-75
2022/05/26 06:42:43;;;;;;;7.55;2.05;;;15.20;78.10;;;;;;5053472;28;20056;-72
2022/05/26 06:45:09;;;;;;;8.38;1.58;;;15.30;77.40;;;;;;5021053;28;20037;-74
2022/05/26 06:47:34;;;;;;;6.25;2.35;;;15.20;77.30;;;;;;5069997;28;20503;-73
2022/05/26 06:50:00;;;;;;;5.80;1.73;;;15.10;77.30;;;;;;5035802;28;20033;-75
2022/05/26 06:52:27;;;;;;;6.40;1.75;;;15.20;76.80;;;;;;5053492;28;20493;-73
2022/05/26 06:54:54;;;;;;;8.80;1.80;;;15.20;77.20;;;;;;5020336;28;20084;-75
2022/05/26 06:57:20;;;;;;;4.03;1.05;;;15.20;77.60;;;;;;5019621;28;20063;-74
2022/05/26 06:59:45;;;;;;;7.43;1.83;;;15.30;77.70;;;;;;5053248;28;20049;-74
2022/05/26 07:02:12;;;;;;;5.18;1.40;;;15.40;77.50;;;;;;5054063;28;20037;-72
2022/05/26 07:04:40;;;;;;;7.15;1.35;;;15.40;76.60;;;;;;5069829;28;20111;-72
2022/05/26 07:07:06;;;;;;;7.57;1.98;;;15.40;77.00;;;;;;5069596;28;20041;-76
2022/05/26 07:09:32;;;;;;;3.17;1.23;;;15.50;77.00;;;;;;5069676;28;20084;-72
2022/05/26 07:11:58;;;;;;;6.30;1.27;;;15.50;76.70;;;;;;5036250;28;20079;-72
2022/05/26 07:14:24;;;;;;;11.32;1.38;;;15.50;76.30;;;;;;5036217;28;20037;-72
2022/05/26 07:16:50;;;;;;;8.60;2.22;;;15.50;76.20;;;;;;5069438;28;20052;-75
2022/05/26 07:19:17;;;;;;;10.68;1.83;;;15.50;76.20;;;;;;5069208;28;20053;-73
2022/05/26 07:21:46;;;;;;;5.28;1.52;;;15.40;75.80;;;;;;5069501;28;20503;-74
2022/05/26 07:24:13;;;;;;;5.95;1.20;;;15.50;75.80;;;;;;5069192;28;20037;-77
2022/05/26 07:26:39;;;;;;;7.82;1.45;;;15.50;75.90;;;;;;5069293;28;20512;-78
2022/05/26 07:29:05;;;;;;;8.23;1.10;;;15.60;75.70;;;;;;5069481;28;20389;-78
2022/05/26 07:31:31;;;;;;;5.20;1.05;;;15.60;75.60;;;;;;5069299;28;20037;-76
2022/05/26 07:33:57;;;;;;;7.97;1.25;;;15.60;75.70;;;;;;5069303;28;20044;-79
2022/05/26 07:41:57;;;;;;;3.42;1.13;;;15.90;74.50;;;;;;5069153;28;20053;-76
2022/05/26 07:44:23;;;;;;;4.00;1.63;;;16.10;73.20;;;;;;5035769;28;20044;-73
2022/05/26 07:46:49;;;;;;;6.32;1.60;;;16.20;73.60;;;;;;5019241;28;20103;-76
2022/05/26 07:49:15;;;;;;;5.57;1.60;;;16.40;73.20;;;;;;5035949;28;20081;-74
2022/05/26 07:51:41;;;;;;;5.78;1.60;;;16.30;72.10;;;;;;5034938;28;20040;-77
2022/05/26 07:54:06;;;;;;;5.25;2.08;;;16.40;72.70;;;;;;5035137;28;20099;-75
2022/05/26 07:56:36;;;;;;;3.53;1.20;;;16.40;71.30;;;;;;5056075;28;20538;-76
2022/05/26 07:59:04;;;;;;;5.20;1.20;;;16.40;71.10;;;;;;5035506;28;20045;-75
2022/05/26 08:01:30;;;;;;;5.43;1.38;;;16.40;71.40;;;;;;5018642;28;20048;-77
2022/05/26 08:03:56;;;;;;;4.47;1.33;;;16.40;70.20;;;;;;5018303;28;20072;-76
2022/05/26 08:06:22;;;;;;;4.35;0.93;;;16.50;69.40;;;;;;5068272;28;20145;-76
2022/05/26 08:08:48;;;;;;;4.22;0.98;;;16.50;69.40;;;;;;5051563;28;20037;-74
2022/05/26 08:11:14;;;;;;;4.45;1.00;;;16.40;69.60;;;;;;5068083;28;20041;-77
2022/05/26 08:13:39;;;;;;;7.28;1.10;;;16.50;69.30;;;;;;5035116;28;20116;-73
2022/05/26 08:16:06;;;;;;;3.47;1.00;;;16.50;69.40;;;;;;5034880;28;20059;-72
2022/05/26 08:18:32;;;;;;;7.22;1.83;;;16.50;68.90;;;;;;5062484;28;20441;-73
2022/05/26 08:21:06;;;;;;;4.93;1.42;;;16.60;68.70;;;;;;5035040;28;20477;-76
2022/05/26 08:23:32;;;;;;;3.35;0.93;;;16.60;68.60;;;;;;5034953;28;20115;-74
2022/05/26 08:25:57;;;;;;;3.58;0.60;;;16.70;66.50;;;;;;5035034;28;20124;-75
2022/05/26 08:28:24;;;;;;;2.78;0.93;;;16.70;65.20;;;;;;5035064;28;20473;-75
2022/05/26 08:30:49;;;;;;;4.95;0.77;;;16.80;66.10;;;;;;5034942;28;20045;-75
2022/05/26 08:33:15;;;;;;;4.68;1.33;;;16.80;65.90;;;;;;5018391;28;20527;-72
2022/05/26 08:35:41;;;;;;;2.53;0.90;;;16.80;66.80;;;;;;5017867;28;20063;-76
2022/05/26 08:38:06;;;;;;;4.10;0.70;;;16.90;67.50;;;;;;5033386;28;20095;-74
2022/05/26 08:40:43;;;;;;;4.43;0.80;;;17.00;63.30;;;;;;5034399;28;20079;-75
2022/05/26 08:43:21;;;;;;;4.15;1.13;;;17.00;64.10;;;;;;5034282;28;20084;-73
2022/05/26 08:45:49;;;;;;;3.97;0.98;;;17.00;64.10;;;;;;5034396;28;20076;-76
2022/05/26 08:48:48;;;;;;;2.42;1.00;;;17.00;65.20;;;;;;5034528;28;20079;-73
2022/05/26 08:51:28;;;;;;;4.40;1.58;;;17.10;63.60;;;;;;5034523;28;20075;-72
2022/05/26 08:53:57;;;;;;;4.75;1.17;;;17.20;64.50;;;;;;5034564;28;20637;-77
2022/05/26 08:56:26;;;;;;;4.28;1.23;;;17.30;64.40;;;;;;5034640;28;20148;-75
2022/05/26 08:59:01;;;;;;;4.32;1.27;;;17.30;64.20;;;;;;5034570;28;20133;-78
2022/05/26 09:01:31;;;;;;;;;;;17.30;63.20;;;;;;5035334;28;20105;-74
2022/05/26 09:03:57;;;;;;;6.22;1.35;;;17.40;63.00;;;;;;5034406;28;19917;-73
2022/05/26 09:06:23;;;;;;;2.85;1.10;;;17.40;63.70;;;;;;5017873;28;20045;-77
2022/05/26 09:14:19;;;;;;;4.38;1.10;;;17.60;61.20;;;;;;5038094;28;20053;-72
2022/05/26 09:16:44;;;;;;;4.38;0.85;;;17.80;61.70;;;;;;5038031;28;20047;-74
2022/05/26 09:19:13;;;;;;;4.22;0.90;;;17.80;61.70;;;;;;5037996;28;20033;-75
2022/05/26 09:21:40;;;;;;;7.03;1.10;;;17.90;61.50;;;;;;5038259;28;20040;-76
2022/05/26 09:24:36;;;;;;;2.22;0.70;;;18.00;61.90;;;;;;5038145;28;20396;-77
2022/05/26 09:27:29;;;;;;;3.70;1.00;;;18.00;62.60;;;;;;5037813;28;20242;-74
2022/05/26 09:30:14;;;;;;;2.55;0.80;;;18.20;62.80;;;;;;5037753;28;20045;-74
2022/05/26 09:32:39;;;;;;;5.00;1.13;;;18.00;61.40;;;;;;5037797;28;20056;-79
2022/05/26 09:35:25;;;;;;;5.07;1.17;;;18.00;61.70;;;;;;5005065;28;20037;-73
2022/05/26 09:38:16;;;;;;;4.93;1.45;;;18.00;61.80;;;;;;5038000;28;20057;-77
2022/05/26 09:40:46;;;;;;;4.22;1.20;;;18.20;62.30;;;;;;5037534;28;20040;-76
2022/05/26 09:43:26;;;;;;;6.68;1.13;;;18.40;62.00;;;;;;5037776;28;20041;-75
2022/05/26 09:45:58;;;;;;;3.45;0.73;;;18.50;63.00;;;;;;5037815;28;20115;-75
2022/05/26 09:48:33;;;;;;;7.57;1.80;;;18.70;61.50;;;;;;5021049;28;20037;-76
2022/05/26 09:51:23;;;;;;;3.55;1.35;;;18.80;62.80;;;;;;5020889;28;20045;-73
2022/05/26 09:53:51;;;;;;;6.97;1.60;;;18.90;63.30;;;;;;5037682;28;20052;-75
2022/05/26 09:56:38;;;;;;;5.40;1.30;;;18.70;63.90;;;;;;5037298;28;20389;-73
2022/05/26 09:59:34;;;;;;;6.88;1.52;;;18.50;63.80;;;;;;5037288;28;20051;-76
2022/05/26 10:02:34;;;;;;;5.97;1.75;;;18.50;65.20;;;;;;5037290;28;20048;-75
2022/05/26 10:05:09;;;;;;;3.10;1.02;;;18.50;65.10;;;;;;5009690;28;20409;-75
2022/05/26 10:08:07;;;;;;;3.92;0.70;;;18.50;63.60;;;;;;5037030;28;20048;-75
2022/05/26 10:10:48;;;;;;;6.85;1.67;;;18.40;63.60;;;;;;5036971;28;20504;-76
2022/05/26 10:13:35;;;;;;;5.78;1.08;;;18.20;65.10;;;;;;5037052;28;20037;-75
2022/05/26 10:16:16;;;;;;;6.15;1.10;;;18.30;65.50;;;;;;5037264;28;20036;-74
2022/05/26 10:18:51;;;;;;;7.88;1.80;;;18.30;65.80;;;;;;5036953;28;20049;-75
2022/05/26 10:21:28;;;;;;;8.18;1.98;;;18.20;66.30;;;;;;5036724;28;20509;-75
2022/05/26 10:24:13;;;;;;;7.25;1.60;;;18.10;66.20;;;;;;5036965;28;20120;-75
2022/05/26 10:26:43;;;;;;;8.07;2.50;;;18.20;66.70;;;;;;5036728;28;20044;-73
2022/05/26 10:29:20;;;;;;;6.32;1.58;;;18.10;66.90;;;;;;5036897;28;20036;-75
2022/05/26 10:32:01;;;;;;;5.45;1.60;;;18.20;66.90;;;;;;5036973;28;20492;-77
2022/05/26 10:34:45;;;;;;;6.53;1.80;;;18.20;66.20;;;;;;5036651;28;20091;-75
2022/05/26 10:37:30;;;;;;;;;;;18.30;67.00;;;;;;5036976;28;20049;-78
2022/05/26 10:40:07;;;;;;;6.88;1.50;;;18.40;66.20;;;;;;5036590;28;19916;-79
2022/05/26 10:42:38;;;;;;;8.43;2.03;;;18.50;66.50;;;;;;5036419;28;20082;-74
2022/05/26 10:45:22;;;;;;;7.45;1.80;;;18.70;66.10;;;;;;5020002;28;20196;-75
2022/05/26 10:47:54;;;;;;;4.95;1.83;;;18.90;64.90;;;;;;5036293;28;20037;-77
2022/05/26 10:50:33;;;;;;;8.18;3.20;;;18.90;62.60;;;;;;5019716;28;20045;-74
2022/05/26 10:53:08;;;;;;;9.57;2.13;;;18.90;63.40;;;;;;5019772;28;20558;-79
2022/05/26 10:55:46;;;;;;;8.73;2.10;;;19.00;65.10;;;;;;5036023;28;20047;-74
2022/05/26 10:58:26;;;;;;;6.70;1.60;;;18.90;65.10;;;;;;5036419;28;20045;-75
2022/05/26 11:01:01;;;;;;;3.03;0.90;;;18.90;65.00;;;;;;5036321;28;20088;-77
2022/05/26 11:04:02;;;;;;;5.43;1.95;;;19.00;63.50;;;;;;5036059;28;20037;-79
2022/05/26 11:06:33;;;;;;;8.27;2.22;;;19.00;64.10;;;;;;5019278;28;20114;-74
2022/05/26 11:09:19;;;;;;;10.02;2.72;;;19.00;63.90;;;;;;5035952;28;20079;-74
2022/05/26 11:11:58;;;;;;;6.57;2.28;;;19.00;63.60;;;;;;5019436;28;20045;-76
2022/05/26 11:17:47;;;;;;;5.72;1.77;;;19.10;64.10;;;;;;5035957;28;20120;-80
2022/05/26 11:20:20;;;;;;;6.63;2.65;;;19.10;63.40;;;;;;5023334;28;20092;-75
2022/05/26 11:22:48;;;;;;;3.65;1.50;;;19.10;63.70;;;;;;5035747;28;20049;-76
2022/05/26 11:25:25;;;;;;;5.97;1.55;;;19.30;62.30;;;;;;5035815;28;20520;-75
2022/05/26 11:28:03;;;;;;;4.57;1.00;;;19.20;63.20;;;;;;5035548;28;20049;-75
2022/05/26 11:36:21;;;;;;;6.25;1.75;;;19.20;62.50;;;;;;5035224;28;20122;-76
2022/05/26 11:38:50;;;;;;;7.68;1.92;;;19.30;61.90;;;;;;5035395;28;20477;-71
2022/05/26 11:41:31;;;;;;;6.13;2.00;;;19.40;62.40;;;;;;5035537;28;20048;-75
2022/05/26 11:44:00;;;;;;;6.75;1.60;;;19.40;62.50;;;;;;5035339;28;20049;-75
2022/05/26 11:46:44;;;;;;;8.60;1.55;;;19.20;63.10;;;;;;5035208;28;20079;-73
2022/05/26 11:49:30;;;;;;;;;;;19.10;63.30;;;;;;5035955;28;20099;-77
2022/05/26 11:51:55;;;;;;;5.55;2.30;;;19.40;64.40;;;;;;5004943;28;20470;-77
2022/05/26 11:55:02;;;;;;;6.53;2.08;;;19.50;62.30;;;;;;5035475;28;20080;-76
2022/05/26 11:57:51;;;;;;;13.05;3.15;;;19.40;62.20;;;;;;5031610;28;20497;-74
2022/05/26 12:00:40;;;;;;;5.53;1.65;;;19.10;64.70;;;;;;5015568;28;20045;-75
2022/05/26 12:03:23;;;;;;;5.10;1.83;;;18.90;64.40;;;;;;5032045;28;20434;-76
2022/05/26 12:06:30;;;;;;;7.65;2.75;;;18.80;64.50;;;;;;5031748;28;20041;-78
2022/05/26 12:09:11;;;;;;;6.32;2.58;;;18.50;66.30;;;;;;4984283;28;20166;-77
2022/05/26 12:11:55;;;;;;;9.35;2.55;;;18.50;66.70;;;;;;5031823;28;20187;-75
2022/05/26 12:14:25;;;;;;;9.40;1.83;;;18.50;65.70;;;;;;5031726;28;20068;-75
2022/05/26 12:16:51;;;;;;;9.68;2.85;;;18.60;65.30;;;;;;5031919;28;20045;-75
2022/05/26 12:19:40;;;;;;;9.45;1.90;;;18.50;66.20;;;;;;5031471;28;20038;-75
2022/05/26 12:22:22;;;;;;;4.85;2.00;;;18.60;66.10;;;;;;5015048;28;20064;-77
2022/05/26 12:24:50;;;;;;;6.00;1.58;;;18.60;66.20;;;;;;5031570;28;20046;-78
2022/05/26 12:27:48;;;;;;;3.90;1.30;;;18.60;64.80;;;;;;5031415;28;20052;-73
2022/05/26 12:30:55;;;;;;;5.30;1.90;;;18.70;64.40;;;;;;5015107;28;20052;-75
2022/05/26 12:33:39;;;;;;;3.28;1.50;;;18.60;65.40;;;;;;5030272;28;20472;-76
2022/05/26 12:36:11;;;;;;;;;;;18.60;64.40;;;;;;5031788;28;20132;-74
2022/05/26 12:39:14;;;;;;;10.10;2.08;;;18.70;65.10;;;;;;5031462;28;19967;-78
2022/05/26 12:41:56;;;;;;;10.07;3.42;;;18.70;64.00;;;;;;5031711;28;20057;-74
2022/05/26 12:44:28;;;;;;;6.25;2.15;;;18.60;65.10;;;;;;5031443;28;20088;-73
2022/05/26 12:47:03;;;;;;;7.03;1.63;;;18.60;63.90;;;;;;5031841;28;20042;-73
2022/05/26 12:49:50;;;;;;;7.32;1.70;;;18.50;64.60;;;;;;5035137;28;20065;-77
2022/05/26 12:52:32;;;;;;;8.32;1.58;;;18.30;65.40;;;;;;5018808;28;20068;-75
2022/05/26 12:55:07;;;;;;;5.93;2.03;;;18.30;65.40;;;;;;5035506;28;20103;-76
2022/05/26 12:57:36;;;;;;;8.32;1.70;;;18.30;64.90;;;;;;5035045;28;20064;-75
2022/05/26 13:00:32;;;;;;;9.75;2.08;;;18.20;63.70;;;;;;5034975;28;20490;-76
2022/05/26 13:03:23;;;;;;;8.38;2.72;;;18.20;64.80;;;;;;5035247;28;20393;-76
2022/05/26 13:06:07;;;;;;;7.72;2.67;;;18.10;65.50;;;;;;5026784;28;20049;-78
2022/05/26 13:08:43;;;;;;;7.88;2.72;;;18.10;66.20;;;;;;5018446;28;20041;-81
2022/05/26 13:11:15;;;;;;;11.18;2.47;;;18.20;67.90;;;;;;5034771;28;20087;-81
2022/05/26 13:13:47;;;;;;;7.88;2.58;;;18.20;67.40;;;;;;5018324;28;20068;-75
2022/05/26 13:16:41;;;;;;;13.90;3.13;;;18.20;67.30;;;;;;5034775;28;20551;-79
2022/05/26 13:19:21;;;;;;;8.88;2.47;;;18.20;68.30;;;;;;5034914;28;20052;-74
2022/05/26 13:21:49;;;;;;;10.40;3.25;;;18.10;67.70;;;;;;5034718;28;20038;-80
2022/05/26 13:24:18;;;;;;;9.38;3.50;;;18.10;69.10;;;;;;5034875;28;20124;-74
2022/05/26 13:26:45;;;;;;;9.13;3.30;;;18.10;68.50;;;;;;5034491;28;20163;-79
2022/05/26 13:29:15;;;;;;;12.13;3.80;;;18.10;69.00;;;;;;5034454;28;20069;-76
2022/05/26 13:34:32;;;;;;;8.77;2.85;;;18.00;69.80;;;;;;5034492;28;20056;-77
2022/05/26 13:37:03;;;;;;;8.25;2.92;;;17.90;68.40;;;;;;5034448;28;20041;-75
2022/05/26 13:39:29;;;;;;;7.38;2.65;;;17.90;68.30;;;;;;5034328;28;20073;-79
2022/05/26 13:41:56;;;;;;;5.60;2.53;;;17.90;69.20;;;;;;5034573;28;20099;-78
2022/05/26 13:44:39;;;;;;;6.93;2.38;;;17.90;69.80;;;;;;5017795;28;20053;-75
2022/05/26 13:47:08;;;;;;;6.10;2.45;;;17.80;69.30;;;;;;5034211;28;20045;-77
2022/05/26 13:49:41;;;;;;;10.10;3.55;;;17.70;69.90;;;;;;5001479;28;20037;-75
2022/05/26 13:52:09;;;;;;;9.93;3.60;;;17.70;69.90;;;;;;5017962;28;20034;-76
2022/05/26 13:54:40;;;;;;;10.20;4.05;;;17.60;70.60;;;;;;5034049;28;20036;-76
2022/05/26 13:57:18;;;;;;;9.73;3.60;;;17.40;71.10;;;;;;5033841;28;20061;-77